KRKP/RKP METAR and TAF weather

Enter ICAO airport designator
Station Type Date Time Source
KRKP METAR 2019/04/18 21:53 UTC NOAA

KRKP 182153Z AUTO 32019G28KT 9SM SCT060 25/15 A2980 RMK AO2 PK WND 32029/2106 SLP093 T02500150


Station Type Date Time Source
KRKP Decoded METAR 2019/04/18 21:53 UTC NOAA

ROCKPORT ARANSAS COUNTY AIRPORT , TX, United States (KRKP) 28-05N 97-03W 6M
Apr 18, 2019 - 05:53 PM EDT / 2019.04.18 2153 UTC
Wind: from the NW (320 degrees) at 22 MPH (19 KT) gusting to 32 MPH (28 KT):0
Visibility: 9 mile(s):0
Sky conditions: partly cloudy
Temperature: 77.0 F (25.0 C)
Dew Point: 59.0 F (15.0 C)
Relative Humidity: 53%
Pressure (altimeter): 29.8 in. Hg (1009 hPa)
ob: KRKP 182153Z AUTO 32019G28KT 9SM SCT060 25/15 A2980 RMK AO2 PK WND 32029/2106 SLP093 T02500150
cycle: 22

Station Type Date Time Source
KRKP TAF UTC NOAA

Error!

Example: see airport list